Time;durP1;ratioP1;P1;durP2;ratioP2;P2;SDS_P1;SDS_P2;PMS_P1;PMS_P2;Temp;Humidity;BMP_temperature;BMP_pressure;BME280_temperature;BME280_humidity;BME280_pressure;Samples;Min_cycle;Max_cycle;Signal;HPM_P1;HPM_P2
2021/12/09 00:01:00;;;;;;;44.27;17.63;;;1.40;99.90;;;;;;4169934;28;20536;-75
2021/12/09 00:03:07;;;;;;;45.53;17.90;;;1.40;99.90;;;;;;4184025;28;20450;-76
2021/12/09 00:05:10;;;;;;;50.93;18.40;;;1.40;99.90;;;;;;4164552;28;20503;-76
2021/12/09 00:07:12;;;;;;;48.30;17.93;;;1.40;99.90;;;;;;4162396;28;20494;-76
2021/12/09 00:09:18;;;;;;;43.07;16.57;;;1.40;99.90;;;;;;4163993;28;20461;-75
2021/12/09 00:11:20;;;;;;;46.57;17.63;;;1.40;99.90;;;;;;4172569;28;20469;-75
2021/12/09 00:13:23;;;;;;;42.00;16.53;;;1.40;99.90;;;;;;4171195;28;20543;-76
2021/12/09 00:15:24;;;;;;;44.90;17.00;;;1.40;99.90;;;;;;4159795;28;20475;-75
2021/12/09 00:17:27;;;;;;;42.23;16.57;;;1.40;99.90;;;;;;4164029;28;20457;-77
2021/12/09 00:19:29;;;;;;;43.40;16.70;;;1.40;99.90;;;;;;4164555;28;20885;-75
2021/12/09 00:21:31;;;;;;;39.80;16.53;;;1.40;99.90;;;;;;4170848;28;20460;-76
2021/12/09 00:23:33;;;;;;;46.17;17.03;;;1.40;99.90;;;;;;4164990;28;20491;-76
2021/12/09 00:25:34;;;;;;;40.63;16.83;;;1.40;99.90;;;;;;4164450;28;20513;-77
2021/12/09 00:27:36;;;;;;;45.67;17.10;;;1.40;99.90;;;;;;4164026;28;20995;-77
2021/12/09 00:29:38;;;;;;;47.00;17.17;;;1.40;99.90;;;;;;4164976;28;20796;-77
2021/12/09 00:31:40;;;;;;;45.70;17.57;;;1.40;99.90;;;;;;4163071;28;20488;-77
2021/12/09 00:33:45;;;;;;;41.03;16.97;;;1.40;99.90;;;;;;4163620;28;20495;-77
2021/12/09 00:35:51;;;;;;;43.77;16.30;;;1.40;99.90;;;;;;4168533;28;20486;-77
2021/12/09 00:37:58;;;;;;;41.27;15.53;;;1.40;99.90;;;;;;4163116;28;20456;-77
2021/12/09 00:39:59;;;;;;;39.13;15.97;;;1.40;99.90;;;;;;4163863;28;20883;-77
2021/12/09 00:42:01;;;;;;;41.90;17.13;;;1.40;99.90;;;;;;4162297;28;20449;-76
2021/12/09 00:44:03;;;;;;;43.17;17.27;;;1.40;99.90;;;;;;4164099;28;20538;-77
2021/12/09 00:46:05;;;;;;;44.80;17.47;;;1.40;99.90;;;;;;4169029;28;20525;-77
2021/12/09 00:48:07;;;;;;;46.90;17.10;;;1.40;99.90;;;;;;4163753;28;20512;-76
2021/12/09 00:50:11;;;;;;;45.23;17.03;;;1.40;99.90;;;;;;4159695;28;20518;-76
2021/12/09 00:52:13;;;;;;;41.73;16.47;;;1.40;99.90;;;;;;4164082;28;20521;-77
2021/12/09 00:54:15;;;;;;;43.00;17.07;;;1.40;99.90;;;;;;4163888;28;20879;-77
2021/12/09 00:56:17;;;;;;;46.30;17.53;;;1.40;99.90;;;;;;4167902;28;20480;-77
2021/12/09 00:58:18;;;;;;;45.03;16.50;;;1.40;99.90;;;;;;4159800;28;20500;-77
2021/12/09 01:00:22;;;;;;;44.80;16.67;;;1.40;99.90;;;;;;4159742;28;20829;-76
2021/12/09 01:02:24;;;;;;;43.37;16.80;;;1.40;99.90;;;;;;4163896;28;20498;-76
2021/12/09 01:04:26;;;;;;;46.67;17.27;;;1.40;99.90;;;;;;4162543;28;20491;-77
2021/12/09 01:06:29;;;;;;;43.00;17.03;;;1.40;99.90;;;;;;4175761;28;20502;-76
2021/12/09 01:08:31;;;;;;;42.53;16.80;;;1.40;99.90;;;;;;4148013;28;20578;-76
2021/12/09 01:10:33;;;;;;;48.77;17.90;;;1.40;99.90;;;;;;4162987;28;20465;-77
2021/12/09 01:12:35;;;;;;;41.60;16.50;;;1.40;99.90;;;;;;4160396;28;20455;-76
2021/12/09 01:14:37;;;;;;;45.20;17.37;;;1.40;99.90;;;;;;4163179;28;20817;-76
2021/12/09 01:16:40;;;;;;;43.53;17.03;;;1.40;99.90;;;;;;4171817;28;20619;-76
2021/12/09 01:18:42;;;;;;;39.77;17.03;;;1.40;99.90;;;;;;4159041;28;20473;-77
2021/12/09 01:20:44;;;;;;;45.30;17.73;;;1.40;99.90;;;;;;4162328;28;20461;-76
2021/12/09 01:22:47;;;;;;;45.70;17.43;;;1.40;99.90;;;;;;4163285;28;20461;-76
2021/12/09 01:24:49;;;;;;;43.27;17.27;;;1.40;99.90;;;;;;4163853;28;20993;-76
2021/12/09 01:26:51;;;;;;;44.43;17.43;;;1.40;99.90;;;;;;4162046;28;20496;-77
2021/12/09 01:28:57;;;;;;;47.23;17.17;;;1.40;99.90;;;;;;4149459;28;20496;-76
2021/12/09 01:31:02;;;;;;;45.57;18.03;;;1.40;99.90;;;;;;4162354;28;20543;-76
2021/12/09 01:33:06;;;;;;;49.47;18.17;;;1.40;99.90;;;;;;4163003;28;20555;-76
2021/12/09 01:35:08;;;;;;;47.17;17.90;;;1.40;99.90;;;;;;4160773;28;21251;-77
2021/12/09 01:37:10;;;;;;;48.43;18.33;;;1.40;99.90;;;;;;4172270;28;20463;-76
2021/12/09 01:39:13;;;;;;;52.00;18.27;;;1.40;99.90;;;;;;4179394;28;20808;-76
2021/12/09 01:41:15;;;;;;;51.43;17.87;;;1.40;99.90;;;;;;4163021;28;20466;-76
2021/12/09 01:43:17;;;;;;;44.70;18.40;;;1.40;99.90;;;;;;4163483;28;20719;-76
2021/12/09 01:45:19;;;;;;;47.30;18.87;;;1.40;99.90;;;;;;4158113;28;20539;-77
2021/12/09 01:47:21;;;;;;;49.20;18.27;;;1.40;99.90;;;;;;4162003;28;20464;-77
2021/12/09 01:49:23;;;;;;;44.03;17.43;;;1.40;99.90;;;;;;4162833;28;20530;-75
2021/12/09 01:51:25;;;;;;;49.03;18.30;;;1.40;99.90;;;;;;4162683;28;20464;-76
2021/12/09 01:53:27;;;;;;;44.07;18.33;;;1.40;99.90;;;;;;4160054;28;20535;-76
2021/12/09 01:55:30;;;;;;;48.93;18.57;;;1.40;99.90;;;;;;4147023;28;20463;-75
2021/12/09 01:57:32;;;;;;;47.03;17.93;;;1.40;99.90;;;;;;4159427;28;20938;-75
2021/12/09 01:59:34;;;;;;;44.60;17.77;;;1.40;99.90;;;;;;4159185;28;20832;-75
2021/12/09 02:01:37;;;;;;;47.60;18.50;;;1.40;99.90;;;;;;4152283;28;20948;-76
2021/12/09 02:03:39;;;;;;;45.80;18.10;;;1.40;99.90;;;;;;4162057;28;20567;-76
2021/12/09 02:05:41;;;;;;;46.47;17.27;;;1.40;99.90;;;;;;4161984;28;20977;-76
2021/12/09 02:07:43;;;;;;;50.17;17.93;;;1.40;99.90;;;;;;4165708;28;20981;-76
2021/12/09 02:09:45;;;;;;;44.07;18.10;;;1.40;99.90;;;;;;4162853;28;20483;-76
2021/12/09 02:11:48;;;;;;;49.87;17.90;;;1.40;99.90;;;;;;4148832;28;20532;-75
2021/12/09 02:13:55;;;;;;;43.53;17.77;;;1.40;99.90;;;;;;4157720;28;20496;-75
2021/12/09 02:15:57;;;;;;;48.50;18.50;;;1.40;99.90;;;;;;4163096;28;20453;-75
2021/12/09 02:17:59;;;;;;;47.37;18.40;;;1.40;99.90;;;;;;4168174;28;20479;-75
2021/12/09 02:20:04;;;;;;;47.07;18.73;;;1.40;99.90;;;;;;4176882;28;20536;-75
2021/12/09 02:22:07;;;;;;;49.03;18.03;;;1.40;99.90;;;;;;4160592;28;20907;-75
2021/12/09 02:24:14;;;;;;;43.10;17.77;;;1.30;99.90;;;;;;4162129;28;20487;-76
2021/12/09 02:26:20;;;;;;;45.63;17.33;;;1.40;99.90;;;;;;4162808;28;21094;-75
2021/12/09 02:28:22;;;;;;;47.60;18.67;;;1.40;99.90;;;;;;4162040;28;20486;-75
2021/12/09 02:30:24;;;;;;;47.57;19.37;;;1.40;99.90;;;;;;4162140;28;20816;-75
2021/12/09 02:32:25;;;;;;;46.13;18.63;;;1.40;99.90;;;;;;4161529;28;20521;-76
2021/12/09 02:34:27;;;;;;;48.30;18.07;;;1.40;99.90;;;;;;4162965;28;20487;-76
2021/12/09 02:36:32;;;;;;;47.07;18.37;;;1.40;99.90;;;;;;4162085;28;20526;-76
2021/12/09 02:38:43;;;;;;;45.83;18.57;;;1.40;99.90;;;;;;4160159;28;20566;-76
2021/12/09 02:40:44;;;;;;;50.43;18.47;;;1.40;99.90;;;;;;4161411;28;20957;-76
2021/12/09 02:42:47;;;;;;;48.57;18.57;;;1.40;99.90;;;;;;4162653;28;20900;-76
2021/12/09 02:44:49;;;;;;;51.13;18.87;;;1.40;99.90;;;;;;4162756;28;20871;-76
2021/12/09 02:46:53;;;;;;;46.03;17.73;;;1.50;99.90;;;;;;4162831;28;20500;-76
2021/12/09 02:48:56;;;;;;;47.97;19.13;;;1.40;99.90;;;;;;4162336;28;20492;-76
2021/12/09 02:50:57;;;;;;;48.07;18.03;;;1.30;99.90;;;;;;4161113;28;20605;-76
2021/12/09 02:52:59;;;;;;;48.33;18.97;;;1.30;99.90;;;;;;4163320;28;20536;-75
2021/12/09 02:55:03;;;;;;;49.03;18.17;;;1.30;99.90;;;;;;4152229;28;20467;-76
2021/12/09 02:57:07;;;;;;;43.30;18.30;;;1.30;99.90;;;;;;4161395;28;20534;-76
2021/12/09 02:59:09;;;;;;;45.73;17.60;;;1.30;99.90;;;;;;4158253;28;20467;-76
2021/12/09 03:01:16;;;;;;;45.90;18.43;;;1.30;99.90;;;;;;4161132;28;20500;-76
2021/12/09 03:03:17;;;;;;;47.93;18.80;;;1.30;99.90;;;;;;4165388;28;20471;-76
2021/12/09 03:05:19;;;;;;;45.07;18.33;;;1.30;99.90;;;;;;4169970;28;20457;-76
2021/12/09 03:07:27;;;;;;;52.13;19.57;;;1.30;99.90;;;;;;4173418;28;20475;-76
2021/12/09 03:09:29;;;;;;;44.70;18.53;;;1.30;99.90;;;;;;4164855;28;20522;-76
2021/12/09 03:11:32;;;;;;;47.13;19.07;;;1.30;99.90;;;;;;4156321;28;20495;-76
2021/12/09 03:13:35;;;;;;;51.87;18.77;;;1.30;99.90;;;;;;4161458;28;20497;-77
2021/12/09 03:15:36;;;;;;;49.03;19.07;;;1.30;99.90;;;;;;4165829;28;20468;-76
2021/12/09 03:17:40;;;;;;;46.27;19.53;;;1.30;99.90;;;;;;4164951;28;20463;-75
2021/12/09 03:19:41;;;;;;;51.57;19.17;;;1.30;99.90;;;;;;4159313;28;20480;-76
2021/12/09 03:21:45;;;;;;;53.70;20.17;;;1.30;99.90;;;;;;4165121;28;20451;-75
2021/12/09 03:23:47;;;;;;;49.97;18.80;;;1.30;99.90;;;;;;4165218;28;20497;-76
2021/12/09 03:25:50;;;;;;;52.40;19.10;;;1.30;99.90;;;;;;4168113;28;20460;-75
2021/12/09 03:27:53;;;;;;;53.70;20.27;;;1.30;99.90;;;;;;4161393;28;20915;-76
2021/12/09 03:29:54;;;;;;;54.10;20.90;;;1.30;99.90;;;;;;4148645;28;20497;-76
2021/12/09 03:31:59;;;;;;;50.77;20.80;;;1.30;99.90;;;;;;4147862;28;20962;-76
2021/12/09 03:34:01;;;;;;;50.17;19.10;;;1.30;99.90;;;;;;4158751;28;20570;-76
2021/12/09 03:36:06;;;;;;;48.50;19.30;;;1.30;99.90;;;;;;4170372;28;20460;-76
2021/12/09 03:38:08;;;;;;;47.60;18.00;;;1.30;99.90;;;;;;4163634;28;20478;-76
2021/12/09 03:40:11;;;;;;;49.83;19.87;;;1.30;99.90;;;;;;4164929;28;20490;-76
2021/12/09 03:42:16;;;;;;;48.67;18.83;;;1.30;99.90;;;;;;4163355;28;20464;-78
2021/12/09 03:44:20;;;;;;;47.73;18.90;;;1.30;99.90;;;;;;4148700;28;20554;-76
2021/12/09 03:46:22;;;;;;;50.67;18.80;;;1.30;99.90;;;;;;4164711;28;20510;-76
2021/12/09 03:48:25;;;;;;;48.93;18.47;;;1.30;99.90;;;;;;4161150;28;20847;-76
2021/12/09 03:50:27;;;;;;;50.80;18.33;;;1.30;99.90;;;;;;4164698;28;20473;-76
2021/12/09 03:52:29;;;;;;;46.70;17.70;;;1.30;99.90;;;;;;4164452;28;20468;-77
2021/12/09 03:54:31;;;;;;;48.27;18.67;;;1.30;99.90;;;;;;4165130;28;20571;-76
2021/12/09 03:56:33;;;;;;;53.90;19.03;;;1.30;99.90;;;;;;4167239;28;21043;-76
2021/12/09 03:58:35;;;;;;;47.17;19.27;;;1.30;99.90;;;;;;4165022;28;21030;-77
2021/12/09 04:00:39;;;;;;;55.57;19.30;;;1.30;99.90;;;;;;4165302;28;21026;-76
2021/12/09 04:02:41;;;;;;;49.77;19.63;;;1.30;99.90;;;;;;4164389;28;20956;-76
2021/12/09 04:04:43;;;;;;;49.50;18.57;;;1.30;99.90;;;;;;4158822;28;20493;-76
2021/12/09 04:06:45;;;;;;;44.97;18.37;;;1.30;99.90;;;;;;4174025;28;20456;-76
2021/12/09 04:08:48;;;;;;;48.93;19.30;;;1.30;99.90;;;;;;4164137;28;20503;-76
2021/12/09 04:10:50;;;;;;;58.57;19.83;;;1.30;99.90;;;;;;4161388;28;20472;-76
2021/12/09 04:12:52;;;;;;;54.63;19.80;;;1.20;99.90;;;;;;4147912;28;20462;-76
2021/12/09 04:14:54;;;;;;;51.93;19.03;;;1.30;99.90;;;;;;4147969;28;20481;-77
2021/12/09 04:16:57;;;;;;;52.93;19.00;;;1.30;99.90;;;;;;4165576;28;20464;-76
2021/12/09 04:19:00;;;;;;;54.43;19.53;;;1.30;99.90;;;;;;4160995;28;20455;-76
2021/12/09 04:21:02;;;;;;;50.30;18.57;;;1.30;99.90;;;;;;4163014;28;20474;-76
2021/12/09 04:23:05;;;;;;;49.63;18.57;;;1.30;99.90;;;;;;4164297;28;20468;-77
2021/12/09 04:25:08;;;;;;;45.83;18.37;;;1.30;99.90;;;;;;4160914;28;20488;-76
2021/12/09 04:27:10;;;;;;;50.03;18.40;;;1.30;99.90;;;;;;4165318;28;20866;-76
2021/12/09 04:29:12;;;;;;;47.90;19.17;;;1.30;99.90;;;;;;4151044;28;20492;-76
2021/12/09 04:31:16;;;;;;;47.20;18.20;;;1.30;99.90;;;;;;4160567;28;20460;-77
2021/12/09 04:33:19;;;;;;;43.87;17.40;;;1.30;99.90;;;;;;4163982;28;20853;-76
2021/12/09 04:35:22;;;;;;;51.77;19.53;;;1.30;99.90;;;;;;4163413;28;20460;-76
2021/12/09 04:37:24;;;;;;;48.30;18.70;;;1.30;99.90;;;;;;4162443;28;20888;-76
2021/12/09 04:39:25;;;;;;;50.43;19.43;;;1.40;99.90;;;;;;4161055;28;20454;-76
2021/12/09 04:41:27;;;;;;;53.30;19.43;;;1.30;99.90;;;;;;4161770;28;20848;-76
2021/12/09 04:43:29;;;;;;;50.90;19.07;;;1.30;99.90;;;;;;4162045;28;20486;-76
2021/12/09 04:45:34;;;;;;;48.90;18.57;;;1.30;99.90;;;;;;4164130;28;20503;-76
2021/12/09 04:47:36;;;;;;;55.40;19.87;;;1.30;99.90;;;;;;4161567;28;20656;-76
2021/12/09 04:49:39;;;;;;;53.80;20.30;;;1.30;99.90;;;;;;4162924;28;20537;-77
2021/12/09 04:51:41;;;;;;;48.23;17.87;;;1.40;99.90;;;;;;4161005;28;20512;-77
2021/12/09 04:53:43;;;;;;;48.23;19.27;;;1.40;99.90;;;;;;4161519;28;20499;-77
2021/12/09 04:55:44;;;;;;;51.67;19.47;;;1.40;99.90;;;;;;4161060;28;20468;-75
2021/12/09 04:57:46;;;;;;;54.67;19.40;;;1.40;99.90;;;;;;4164349;28;20462;-75
2021/12/09 04:59:50;;;;;;;48.83;18.77;;;1.40;99.90;;;;;;4162071;28;20453;-76
2021/12/09 05:01:52;;;;;;;51.27;19.43;;;1.40;99.90;;;;;;4157371;28;20498;-76
2021/12/09 05:03:54;;;;;;;46.03;18.17;;;1.40;99.90;;;;;;4163148;28;20476;-76
2021/12/09 05:05:57;;;;;;;49.83;19.00;;;1.40;99.90;;;;;;4154482;28;20468;-75
2021/12/09 05:08:00;;;;;;;49.83;18.33;;;1.40;99.90;;;;;;4167783;28;20474;-75
2021/12/09 05:10:02;;;;;;;55.43;20.50;;;1.40;99.90;;;;;;4169254;28;20492;-75
2021/12/09 05:12:05;;;;;;;49.73;19.30;;;1.40;99.90;;;;;;4155762;28;20488;-76
2021/12/09 05:14:07;;;;;;;54.47;19.50;;;1.40;99.90;;;;;;4163994;28;20485;-76
2021/12/09 05:16:11;;;;;;;51.00;19.87;;;1.40;99.90;;;;;;4163545;28;20475;-75
2021/12/09 05:18:13;;;;;;;54.43;19.93;;;1.40;99.90;;;;;;4160660;28;20476;-76
2021/12/09 05:20:15;;;;;;;48.40;19.20;;;1.40;99.90;;;;;;4172701;28;20448;-75
2021/12/09 05:22:18;;;;;;;51.53;19.00;;;1.40;99.90;;;;;;4161095;28;20476;-75
2021/12/09 05:24:21;;;;;;;54.27;19.87;;;1.50;99.90;;;;;;4158015;28;20488;-76
2021/12/09 05:26:26;;;;;;;48.77;19.70;;;1.50;99.90;;;;;;4162281;28;20463;-75
2021/12/09 05:28:32;;;;;;;46.30;18.70;;;1.50;99.90;;;;;;4166902;28;20469;-75
2021/12/09 05:32:07;;;;;;;59.07;21.67;;;1.50;99.90;;;;;;4162116;28;20493;-75
2021/12/09 05:32:59;;;;;;;53.97;19.97;;;1.50;99.90;;;;;;4158427;28;20464;-75
2021/12/09 05:35:02;;;;;;;53.33;20.30;;;1.50;99.90;;;;;;4162700;28;21097;-76
2021/12/09 05:37:06;;;;;;;47.87;19.43;;;1.50;99.90;;;;;;4160807;28;20220;-76
2021/12/09 05:39:11;;;;;;;53.50;20.27;;;1.50;99.90;;;;;;4166789;28;20530;-76
2021/12/09 05:41:12;;;;;;;55.57;19.90;;;1.50;99.90;;;;;;4154468;28;20503;-77
2021/12/09 05:43:15;;;;;;;55.13;20.30;;;1.50;99.90;;;;;;4161450;28;20464;-75
2021/12/09 05:45:17;;;;;;;54.80;20.37;;;1.50;99.90;;;;;;4163390;28;20490;-76
2021/12/09 05:47:19;;;;;;;57.70;20.70;;;1.50;99.90;;;;;;4159994;28;20988;-75
2021/12/09 05:49:21;;;;;;;51.13;19.57;;;1.50;99.90;;;;;;4160192;28;20557;-75
2021/12/09 05:51:24;;;;;;;56.03;20.13;;;1.50;99.90;;;;;;4162066;28;20476;-76
2021/12/09 05:53:26;;;;;;;53.33;19.30;;;1.50;99.90;;;;;;4165426;28;21046;-75
2021/12/09 05:55:29;;;;;;;51.77;20.83;;;1.50;99.90;;;;;;4162017;28;20882;-75
2021/12/09 05:57:31;;;;;;;54.47;20.60;;;1.50;99.90;;;;;;4170919;28;20519;-77
2021/12/09 05:59:33;;;;;;;54.03;20.67;;;1.50;99.90;;;;;;4171190;28;20476;-76
2021/12/09 06:01:35;;;;;;;56.57;21.00;;;1.50;99.90;;;;;;4160545;28;20462;-75
2021/12/09 06:03:37;;;;;;;57.63;21.40;;;1.50;99.90;;;;;;4162178;28;20481;-75
2021/12/09 06:05:39;;;;;;;53.50;20.07;;;1.90;99.90;;;;;;4159796;28;20479;-76
2021/12/09 06:07:41;;;;;;;53.30;20.90;;;1.50;99.90;;;;;;4163051;28;20465;-76
2021/12/09 06:09:43;;;;;;;56.67;21.10;;;1.60;99.90;;;;;;4165635;28;21014;-76
2021/12/09 06:11:49;;;;;;;54.50;21.27;;;1.60;99.90;;;;;;4150578;28;20531;-76
2021/12/09 06:13:52;;;;;;;56.40;22.27;;;1.60;99.90;;;;;;4159746;28;20484;-76
2021/12/09 06:15:54;;;;;;;56.87;20.47;;;1.60;99.90;;;;;;4160358;28;20906;-76
2021/12/09 06:17:56;;;;;;;53.17;21.27;;;1.60;99.90;;;;;;4162229;28;20471;-77
2021/12/09 06:19:57;;;;;;;62.20;21.57;;;1.60;99.90;;;;;;4158655;28;20944;-78
2021/12/09 06:21:59;;;;;;;61.63;21.60;;;1.60;99.90;;;;;;4160509;28;20945;-77
2021/12/09 06:24:02;;;;;;;60.33;22.20;;;1.60;99.90;;;;;;4161940;28;20475;-79
2021/12/09 06:26:05;;;;;;;55.73;22.43;;;1.60;99.90;;;;;;4161363;28;20471;-77
2021/12/09 06:28:08;;;;;;;55.20;21.77;;;1.60;99.90;;;;;;4160669;28;20476;-77
2021/12/09 06:30:11;;;;;;;62.00;21.77;;;1.60;99.90;;;;;;4163433;28;20537;-78
2021/12/09 06:32:13;;;;;;;59.67;22.83;;;1.60;99.90;;;;;;4160169;28;20464;-78
2021/12/09 06:34:15;;;;;;;62.43;23.13;;;1.60;99.90;;;;;;4158913;28;20550;-76
2021/12/09 06:36:17;;;;;;;55.57;21.17;;;1.60;99.90;;;;;;4156375;28;20456;-78
2021/12/09 06:38:19;;;;;;;55.87;21.43;;;1.60;99.90;;;;;;4161935;28;20750;-76
2021/12/09 06:40:23;;;;;;;54.73;21.60;;;1.60;99.90;;;;;;4154057;28;20479;-76
2021/12/09 06:42:24;;;;;;;57.03;21.97;;;1.60;99.90;;;;;;4154417;28;20507;-76
2021/12/09 06:44:27;;;;;;;56.70;20.67;;;1.60;99.90;;;;;;4154398;28;20468;-76
2021/12/09 06:46:29;;;;;;;59.07;21.50;;;1.60;99.90;;;;;;4156331;28;20461;-75
2021/12/09 06:48:33;;;;;;;59.13;22.60;;;1.60;99.90;;;;;;4155960;28;20452;-75
2021/12/09 06:50:35;;;;;;;62.90;23.87;;;1.60;99.90;;;;;;4155678;28;20501;-75
2021/12/09 06:52:37;;;;;;;62.00;22.63;;;1.60;99.90;;;;;;4155269;28;20461;-75
2021/12/09 06:54:39;;;;;;;62.43;23.33;;;1.70;99.90;;;;;;4155846;28;20924;-76
2021/12/09 06:56:41;;;;;;;58.83;22.80;;;1.70;99.90;;;;;;4156241;28;20519;-75
2021/12/09 06:58:42;;;;;;;58.60;22.83;;;1.60;99.90;;;;;;4156173;28;21004;-75
2021/12/09 07:00:46;;;;;;;63.60;23.37;;;1.60;99.90;;;;;;4154955;28;20456;-75
2021/12/09 07:02:48;;;;;;;59.30;22.40;;;1.70;99.90;;;;;;4153921;28;21035;-75
2021/12/09 07:04:50;;;;;;;59.83;22.67;;;1.70;99.90;;;;;;4154309;28;20618;-75
2021/12/09 07:06:52;;;;;;;60.30;23.40;;;1.70;99.90;;;;;;4155627;28;20974;-75
2021/12/09 07:08:59;;;;;;;59.03;23.00;;;1.70;99.90;;;;;;4154946;28;20477;-75
2021/12/09 07:11:00;;;;;;;54.60;22.10;;;1.70;99.90;;;;;;4153420;28;20975;-75
2021/12/09 07:13:04;;;;;;;58.80;21.97;;;1.70;99.90;;;;;;4156898;28;20460;-77
2021/12/09 07:15:08;;;;;;;58.63;21.97;;;1.60;99.90;;;;;;4156439;28;20468;-78
2021/12/09 07:17:12;;;;;;;57.57;22.10;;;1.60;99.90;;;;;;4150285;28;20968;-74
2021/12/09 07:19:14;;;;;;;60.60;23.50;;;1.70;99.90;;;;;;4154159;28;20518;-75
2021/12/09 07:21:16;;;;;;;60.47;22.33;;;1.70;99.90;;;;;;4153629;28;20529;-75
2021/12/09 07:23:18;;;;;;;57.87;23.40;;;1.70;99.90;;;;;;4155045;28;20467;-75
2021/12/09 07:25:22;;;;;;;62.00;23.67;;;1.70;99.90;;;;;;4155350;28;20526;-75
2021/12/09 07:27:23;;;;;;;53.77;21.50;;;1.70;99.90;;;;;;4153320;28;20476;-75
2021/12/09 07:29:25;;;;;;;61.03;23.00;;;1.70;99.90;;;;;;4156170;28;20456;-75
2021/12/09 07:31:28;;;;;;;53.80;21.60;;;1.70;99.90;;;;;;4154999;28;20531;-75
2021/12/09 07:33:31;;;;;;;51.07;21.37;;;1.70;99.90;;;;;;4154716;28;20496;-75
2021/12/09 07:35:32;;;;;;;58.17;22.17;;;1.70;99.90;;;;;;4155398;28;20921;-76
2021/12/09 07:37:36;;;;;;;53.57;21.67;;;1.70;99.90;;;;;;4155771;28;20953;-75
2021/12/09 07:39:38;;;;;;;61.93;22.83;;;1.70;99.90;;;;;;4155605;28;20458;-75
2021/12/09 07:41:40;;;;;;;60.87;21.20;;;1.70;99.90;;;;;;4154147;28;20456;-75
2021/12/09 07:43:42;;;;;;;61.17;21.47;;;1.70;99.90;;;;;;4155776;28;20472;-75
2021/12/09 07:45:44;;;;;;;57.87;22.40;;;1.70;99.90;;;;;;4154424;28;20479;-75
2021/12/09 07:47:47;;;;;;;54.93;22.60;;;1.70;99.90;;;;;;4156593;28;20894;-75
2021/12/09 07:49:50;;;;;;;54.67;21.63;;;1.70;99.90;;;;;;4156319;28;20527;-75
2021/12/09 07:51:52;;;;;;;61.20;22.03;;;1.70;99.90;;;;;;4157421;28;20538;-75
2021/12/09 07:53:54;;;;;;;58.40;23.10;;;1.70;99.90;;;;;;4157930;28;20530;-75
2021/12/09 07:55:56;;;;;;;55.17;21.23;;;1.70;99.90;;;;;;4158974;28;20878;-75
2021/12/09 07:57:58;;;;;;;62.40;22.60;;;1.70;99.90;;;;;;4156847;28;21054;-75
2021/12/09 08:00:00;;;;;;;58.37;23.03;;;1.70;99.90;;;;;;4158147;28;20459;-74
2021/12/09 08:02:05;;;;;;;62.33;23.33;;;1.70;99.90;;;;;;4157593;28;20472;-75
2021/12/09 08:04:07;;;;;;;56.27;21.53;;;1.70;99.90;;;;;;4158667;28;21088;-75
2021/12/09 08:06:13;;;;;;;62.83;23.33;;;1.70;99.90;;;;;;4158044;28;20483;-75
2021/12/09 08:08:15;;;;;;;56.43;22.27;;;1.70;99.90;;;;;;4158220;28;20491;-75
2021/12/09 08:10:19;;;;;;;62.73;22.70;;;1.70;99.90;;;;;;4156436;28;20562;-75
2021/12/09 08:12:22;;;;;;;59.00;23.17;;;1.70;99.90;;;;;;4152969;28;20480;-76
2021/12/09 08:14:24;;;;;;;61.90;21.90;;;1.70;99.90;;;;;;4158476;28;20487;-75
2021/12/09 08:16:25;;;;;;;62.53;22.67;;;1.80;99.90;;;;;;4158599;28;20888;-75
2021/12/09 08:18:31;;;;;;;58.80;22.47;;;1.80;99.90;;;;;;4155650;28;20475;-76
2021/12/09 08:20:33;;;;;;;61.03;21.73;;;1.80;99.90;;;;;;4155249;28;20476;-75
2021/12/09 08:22:36;;;;;;;57.67;22.17;;;1.80;99.90;;;;;;4151749;28;20483;-75
2021/12/09 08:24:38;;;;;;;59.63;22.43;;;1.80;99.90;;;;;;4157984;28;20523;-75
2021/12/09 08:26:40;;;;;;;66.13;22.73;;;1.80;99.90;;;;;;4155734;28;21253;-76
2021/12/09 08:28:42;;;;;;;58.77;22.33;;;1.80;99.90;;;;;;4156360;28;20476;-75
2021/12/09 08:30:44;;;;;;;59.00;22.10;;;1.80;99.90;;;;;;4159085;28;20496;-76
2021/12/09 08:32:46;;;;;;;60.37;22.87;;;1.80;99.90;;;;;;4153849;28;20911;-75
2021/12/09 08:34:48;;;;;;;56.10;22.33;;;1.90;99.90;;;;;;4152490;28;20594;-75
2021/12/09 08:36:50;;;;;;;59.77;23.40;;;1.90;99.90;;;;;;4151082;28;20503;-76
2021/12/09 08:38:53;;;;;;;57.30;22.10;;;1.90;99.90;;;;;;4148464;28;20927;-77
2021/12/09 08:40:55;;;;;;;62.43;24.00;;;1.90;99.90;;;;;;4155893;28;20961;-75
2021/12/09 08:42:57;;;;;;;61.50;23.20;;;1.90;99.90;;;;;;4156170;28;20522;-76
2021/12/09 08:44:59;;;;;;;55.60;22.13;;;2.00;99.90;;;;;;4154066;28;20633;-76
2021/12/09 08:47:00;;;;;;;60.10;23.27;;;2.00;99.90;;;;;;4158340;28;20545;-75
2021/12/09 08:49:10;;;;;;;62.27;23.53;;;2.00;99.90;;;;;;4155691;28;20892;-75
2021/12/09 08:51:12;;;;;;;67.20;23.47;;;2.00;99.90;;;;;;4156755;28;20535;-76
2021/12/09 08:53:18;;;;;;;62.80;24.37;;;2.10;99.90;;;;;;4154828;28;20852;-75
2021/12/09 08:55:22;;;;;;;63.63;23.43;;;2.10;99.90;;;;;;4152291;28;20976;-76
2021/12/09 08:57:23;;;;;;;53.60;22.53;;;2.10;99.90;;;;;;4157255;28;20473;-76
2021/12/09 08:59:26;;;;;;;59.57;23.77;;;2.10;99.90;;;;;;4156300;28;20982;-75
2021/12/09 09:01:28;;;;;;;61.83;23.60;;;2.20;99.90;;;;;;4156623;28;20477;-75
2021/12/09 09:03:30;;;;;;;62.57;24.00;;;2.20;99.90;;;;;;4155140;28;20500;-76
2021/12/09 09:05:34;;;;;;;63.27;24.80;;;2.20;99.90;;;;;;4156242;28;20473;-74
2021/12/09 09:07:35;;;;;;;63.07;24.20;;;2.20;99.90;;;;;;4157429;28;20525;-76
2021/12/09 09:09:39;;;;;;;65.07;23.93;;;2.20;99.90;;;;;;4157207;28;20453;-76
2021/12/09 09:11:42;;;;;;;67.23;25.10;;;2.20;99.90;;;;;;4152642;28;21065;-75
2021/12/09 09:13:44;;;;;;;62.60;24.97;;;2.20;99.90;;;;;;4156394;28;20518;-76
2021/12/09 09:15:48;;;;;;;65.47;24.83;;;2.20;99.90;;;;;;4156867;28;20993;-76
2021/12/09 09:17:51;;;;;;;62.50;23.40;;;2.20;99.90;;;;;;4156855;28;20965;-76
2021/12/09 09:19:53;;;;;;;61.80;23.93;;;2.30;99.90;;;;;;4155986;28;20581;-75
2021/12/09 09:21:54;;;;;;;55.67;22.47;;;2.20;99.90;;;;;;4156079;28;20473;-75
2021/12/09 09:23:56;;;;;;;64.67;24.27;;;2.20;99.90;;;;;;4157138;28;20541;-76
2021/12/09 09:25:58;;;;;;;60.43;24.87;;;2.20;99.90;;;;;;4157529;28;20468;-75
2021/12/09 09:28:02;;;;;;;63.80;24.23;;;2.30;99.90;;;;;;4155747;28;20472;-76
2021/12/09 09:30:05;;;;;;;59.43;23.47;;;2.30;99.90;;;;;;4155162;28;20523;-75
2021/12/09 09:32:10;;;;;;;62.70;25.17;;;2.30;99.90;;;;;;4156825;28;20532;-76
2021/12/09 09:34:12;;;;;;;58.93;24.30;;;2.30;99.90;;;;;;4156122;28;20857;-75
2021/12/09 09:36:14;;;;;;;64.53;23.87;;;2.30;99.90;;;;;;4152793;28;20890;-76
2021/12/09 09:38:18;;;;;;;68.70;24.73;;;2.30;99.90;;;;;;4156677;28;20461;-75
2021/12/09 09:40:27;;;;;;;64.87;23.73;;;2.30;99.90;;;;;;4151685;28;21096;-76
2021/12/09 09:42:55;;;;;;;65.93;24.43;;;2.30;99.90;;;;;;4156009;28;20481;-76
2021/12/09 09:44:57;;;;;;;63.37;23.70;;;2.40;99.90;;;;;;4154556;28;20470;-76
2021/12/09 09:47:01;;;;;;;62.27;24.40;;;2.30;99.90;;;;;;4152704;28;20484;-75
2021/12/09 09:49:05;;;;;;;68.80;26.17;;;2.30;99.90;;;;;;4153630;28;20476;-76
2021/12/09 09:51:09;;;;;;;66.50;24.93;;;2.30;99.90;;;;;;4151143;28;20515;-77
2021/12/09 09:53:11;;;;;;;62.83;24.93;;;2.30;99.90;;;;;;4154772;28;20556;-76
2021/12/09 09:55:20;;;;;;;65.87;24.67;;;2.30;99.90;;;;;;4150233;28;20981;-76
2021/12/09 09:57:22;;;;;;;67.63;25.40;;;2.30;99.90;;;;;;4151949;28;21419;-76
2021/12/09 09:59:23;;;;;;;65.77;25.20;;;2.30;99.90;;;;;;4155635;28;20453;-76
2021/12/09 10:01:29;;;;;;;66.97;24.30;;;2.30;99.90;;;;;;4155280;28;20456;-77
2021/12/09 10:03:34;;;;;;;60.73;24.00;;;2.30;99.90;;;;;;4155607;28;20495;-77
2021/12/09 10:05:38;;;;;;;61.37;24.00;;;2.30;99.90;;;;;;4157386;28;20550;-76
2021/12/09 10:07:39;;;;;;;63.20;24.30;;;2.30;99.90;;;;;;4153519;28;20554;-77
2021/12/09 10:09:42;;;;;;;61.63;24.97;;;2.30;99.90;;;;;;4156158;28;20477;-76
2021/12/09 10:11:44;;;;;;;63.57;24.40;;;2.30;99.90;;;;;;4154353;28;20488;-76
2021/12/09 10:13:46;;;;;;;63.27;25.43;;;2.30;99.90;;;;;;4155377;28;20481;-76
2021/12/09 10:15:51;;;;;;;66.40;25.40;;;2.30;99.90;;;;;;4154894;28;20530;-76
2021/12/09 10:17:54;;;;;;;62.73;24.73;;;2.30;99.90;;;;;;4156876;28;20473;-76
2021/12/09 10:19:58;;;;;;;65.00;26.57;;;2.30;99.90;;;;;;4156113;28;20522;-75
2021/12/09 10:22:09;;;;;;;70.37;25.10;;;2.30;99.90;;;;;;4156862;28;20887;-75
2021/12/09 10:24:11;;;;;;;65.63;25.70;;;2.30;99.90;;;;;;4151241;28;20477;-76
2021/12/09 10:26:20;;;;;;;71.03;24.50;;;2.30;99.90;;;;;;4152985;28;20717;-76
2021/12/09 10:28:25;;;;;;;68.33;25.93;;;2.30;99.90;;;;;;4156310;28;20821;-77
2021/12/09 10:30:29;;;;;;;69.03;25.60;;;2.30;99.90;;;;;;4154946;28;20476;-76